createdAt,value
2023-10-27T00:00:55.480Z,99213.84
2023-10-27T00:03:22.013Z,99224.81
2023-10-27T00:05:48.487Z,99224.81
2023-10-27T00:08:15.049Z,99218.41
2023-10-27T00:10:41.553Z,99226.47
2023-10-27T00:13:08.579Z,99229.72
2023-10-27T00:15:35.032Z,99227.84
2023-10-27T00:18:01.605Z,99217.19
2023-10-27T00:20:28.204Z,99226.69
2023-10-27T00:22:54.683Z,99219.22
2023-10-27T00:25:21.244Z,99222.59
2023-10-27T00:27:47.848Z,99217.19
2023-10-27T00:30:14.524Z,99212.06
2023-10-27T00:32:41.458Z,99213.13
2023-10-27T00:35:08.268Z,99206.69
2023-10-27T00:37:35.467Z,99207.28
2023-10-27T00:40:03.384Z,99201.31
2023-10-27T00:42:30.095Z,99203.75
2023-10-27T00:44:57.455Z,99205.41
2023-10-27T00:47:27.576Z,99201.91
2023-10-27T00:49:55.693Z,99205.97
2023-10-27T00:52:25.799Z,99200.59
2023-10-27T00:54:54.430Z,99204.91
2023-10-27T00:57:27.892Z,99199.31
2023-10-27T00:59:54.594Z,99188.56
2023-10-27T01:02:22.420Z,99178.00
2023-10-27T01:04:49.741Z,99186.56
2023-10-27T01:07:16.880Z,99178.72
2023-10-27T01:09:43.626Z,99191.81
2023-10-27T01:12:10.223Z,99183.19
2023-10-27T01:14:37.987Z,99175.09
2023-10-27T01:17:04.476Z,99177.19
2023-10-27T01:19:31.047Z,99183.06
2023-10-27T01:21:57.638Z,99183.06
2023-10-27T01:24:24.880Z,99172.31
2023-10-27T01:26:51.387Z,99169.38
2023-10-27T01:29:17.909Z,99172.66
2023-10-27T01:31:44.387Z,99167.59
2023-10-27T01:34:12.151Z,99173.59
2023-10-27T01:36:38.822Z,99168.19
2023-10-27T01:39:06.586Z,99166.78
2023-10-27T01:41:33.075Z,99165.97
2023-10-27T01:43:59.744Z,99169.47
2023-10-27T01:46:26.272Z,99161.41
2023-10-27T01:48:52.947Z,99166.22
2023-10-27T01:51:19.761Z,99160.25
2023-10-27T01:53:46.536Z,99157.56
2023-10-27T01:56:13.013Z,99161.06
2023-10-27T01:58:45.079Z,99158.38
2023-10-27T02:01:13.911Z,99151.97
2023-10-27T02:03:40.460Z,99150.91
2023-10-27T02:06:07.005Z,99157.34
2023-10-27T02:08:36.305Z,99151.34
2023-10-27T02:11:03.781Z,99150.78
2023-10-27T02:13:30.589Z,99145.88
2023-10-27T02:15:57.416Z,99139.06
2023-10-27T02:18:23.962Z,99145.88
2023-10-27T02:20:50.462Z,99139.06
2023-10-27T02:23:17.127Z,99140.38
2023-10-27T02:25:43.631Z,99143.88
2023-10-27T02:28:10.251Z,99144.47
2023-10-27T02:30:36.853Z,99144.47
2023-10-27T02:33:03.985Z,99145.06
2023-10-27T02:35:31.055Z,99139.69
2023-10-27T02:37:57.598Z,99138.63
2023-10-27T02:40:24.028Z,99135.69
2023-10-27T02:42:51.392Z,99141.06
2023-10-27T02:45:17.965Z,99137.56
2023-10-27T02:47:44.531Z,99137.81
2023-10-27T02:50:10.990Z,99139.69
2023-10-27T02:52:37.482Z,99142.13
2023-10-27T02:55:04.212Z,99142.94
2023-10-27T02:57:30.718Z,99137.56
2023-10-27T02:59:58.391Z,99145.88
2023-10-27T03:02:25.056Z,99132.41
2023-10-27T03:04:53.196Z,99138.84
2023-10-27T03:07:19.953Z,99135.56
2023-10-27T03:09:46.667Z,99129.63
2023-10-27T03:12:13.609Z,99132.88
2023-10-27T03:14:40.090Z,99136.16
2023-10-27T03:17:06.632Z,99131.81
2023-10-27T03:19:33.192Z,99131.25
2023-10-27T03:22:01.330Z,99135.56
2023-10-27T03:24:27.958Z,99129.72
2023-10-27T03:26:54.456Z,99125.41
2023-10-27T03:29:21.108Z,99127.03
2023-10-27T03:31:47.657Z,99131.81
2023-10-27T03:34:14.155Z,99126.44
2023-10-27T03:36:41.273Z,99116.84
2023-10-27T03:39:09.892Z,99129.28
2023-10-27T03:41:36.357Z,99119.91
2023-10-27T03:44:03.022Z,99126.34
2023-10-27T03:46:31.092Z,99125.06
2023-10-27T03:48:59.420Z,99120.50
2023-10-27T03:51:26.771Z,99118.38
2023-10-27T03:53:55.394Z,99123.53
2023-10-27T03:56:21.880Z,99117.09
2023-10-27T03:58:48.718Z,99117.09
2023-10-27T04:01:16.211Z,99120.84
2023-10-27T04:03:43.084Z,99125.75
2023-10-27T04:06:09.813Z,99121.56
2023-10-27T04:08:36.369Z,99114.06
2023-10-27T04:11:02.834Z,99117.91
2023-10-27T04:13:29.344Z,99120.13
2023-10-27T04:15:55.904Z,99120.13
2023-10-27T04:18:22.369Z,99112.63
2023-10-27T04:20:48.803Z,99118.00
2023-10-27T04:23:16.028Z,99112.63
2023-10-27T04:25:42.568Z,99125.50
2023-10-27T04:28:09.113Z,99115.31
2023-10-27T04:30:37.405Z,99123.53
2023-10-27T04:33:05.978Z,99119.78
2023-10-27T04:35:33.589Z,99117.91
2023-10-27T04:38:00.117Z,99124.69
2023-10-27T04:40:29.172Z,99120.34
2023-10-27T04:42:58.294Z,99116.84
2023-10-27T04:45:26.196Z,99117.09
2023-10-27T04:47:52.674Z,99122.13
2023-10-27T04:50:19.132Z,99117.56
2023-10-27T04:52:46.494Z,99117.56
2023-10-27T04:55:13.908Z,99116.50
2023-10-27T04:57:40.561Z,99106.31
2023-10-27T05:00:09.322Z,99111.69
2023-10-27T05:02:35.789Z,99116.03
2023-10-27T05:05:02.548Z,99116.84
2023-10-27T05:07:29.290Z,99110.66
2023-10-27T05:09:55.798Z,99117.66
2023-10-27T05:12:22.306Z,99114.16
2023-10-27T05:14:48.820Z,99115.56
2023-10-27T05:17:15.321Z,99109.13
2023-10-27T05:19:41.855Z,99108.31
2023-10-27T05:22:08.376Z,99107.25
2023-10-27T05:24:35.521Z,99105.59
2023-10-27T05:27:02.265Z,99108.91
2023-10-27T05:29:28.724Z,99114.28
2023-10-27T05:31:55.206Z,99107.84
2023-10-27T05:34:21.803Z,99113.22
2023-10-27T05:36:48.345Z,99114.84
2023-10-27T05:39:17.826Z,99110.28
2023-10-27T05:41:47.207Z,99109.81
2023-10-27T05:44:16.737Z,99109.56
2023-10-27T05:46:43.289Z,99111.44
2023-10-27T05:49:09.796Z,99106.53
2023-10-27T05:51:36.753Z,99103.63
2023-10-27T05:54:04.372Z,99106.31
2023-10-27T05:56:31.114Z,99105.00
2023-10-27T05:58:57.697Z,99106.88
2023-10-27T06:01:24.412Z,99104.09
2023-10-27T06:03:51.014Z,99104.09
2023-10-27T06:06:17.555Z,99101.75
2023-10-27T06:08:45.405Z,99103.38
2023-10-27T06:11:12.720Z,99108.53
2023-10-27T06:13:39.268Z,99110.97
2023-10-27T06:16:07.153Z,99104.78
2023-10-27T06:18:34.094Z,99117.97
2023-10-27T06:21:00.622Z,99105.84
2023-10-27T06:23:31.916Z,99113.66
2023-10-27T06:25:58.573Z,99117.97
2023-10-27T06:28:25.092Z,99112.25
2023-10-27T06:30:51.561Z,99107.69
2023-10-27T06:33:18.101Z,99111.22
2023-10-27T06:35:44.746Z,99112.59
2023-10-27T06:38:11.225Z,99112.84
2023-10-27T06:40:37.788Z,99110.16
2023-10-27T06:43:05.071Z,99109.34
2023-10-27T06:45:32.119Z,99105.59
2023-10-27T06:47:58.601Z,99105.59
2023-10-27T06:50:25.055Z,99108.03
2023-10-27T06:52:51.548Z,99113.19
2023-10-27T06:55:18.095Z,99103.00
2023-10-27T06:57:44.978Z,99109.19
2023-10-27T07:00:12.543Z,99108.38
2023-10-27T07:02:49.524Z,99110.84
2023-10-27T07:05:22.594Z,99117.03
2023-10-27T07:07:49.213Z,99111.66
2023-10-27T07:10:17.200Z,99117.25
2023-10-27T07:12:44.734Z,99115.97
2023-10-27T07:15:14.004Z,99120.91
2023-10-27T07:17:43.837Z,99117.41
2023-10-27T07:20:11.014Z,99117.41
2023-10-27T07:22:38.873Z,99119.84
2023-10-27T07:25:05.816Z,99120.66
2023-10-27T07:27:34.294Z,99127.66
2023-10-27T07:30:00.769Z,99131.16
2023-10-27T07:32:27.256Z,99140.09
2023-10-27T07:34:53.723Z,99125.56
2023-10-27T07:37:21.607Z,99133.16
2023-10-27T07:39:48.774Z,99136.19
2023-10-27T07:42:15.296Z,99130.78
2023-10-27T07:44:41.859Z,99141.56
2023-10-27T07:47:08.341Z,99139.94
2023-10-27T07:49:35.096Z,99134.31
2023-10-27T07:52:04.326Z,99144.03
2023-10-27T07:54:30.840Z,99140.53
2023-10-27T07:56:57.297Z,99139.00
2023-10-27T07:59:23.817Z,99141.69
2023-10-27T08:01:50.302Z,99134.16
2023-10-27T08:04:16.779Z,99137.94
2023-10-27T08:06:43.229Z,99145.19
2023-10-27T08:09:10.062Z,99139.56
2023-10-27T08:11:36.469Z,99142.25
2023-10-27T08:14:05.308Z,99135.81
2023-10-27T08:16:32.733Z,99149.50
2023-10-27T08:18:59.356Z,99137.13
2023-10-27T08:21:27.114Z,99135.50
2023-10-27T08:23:53.879Z,99144.13
2023-10-27T08:26:20.303Z,99143.06
2023-10-27T08:28:47.098Z,99145.53
2023-10-27T08:31:14.715Z,99146.09
2023-10-27T08:33:42.540Z,99144.22
2023-10-27T08:36:09.028Z,99151.25
2023-10-27T08:38:35.569Z,99138.84
2023-10-27T08:41:02.839Z,99153.97
2023-10-27T08:43:29.556Z,99146.09
2023-10-27T08:45:56.931Z,99149.38
2023-10-27T08:48:24.320Z,99147.03
2023-10-27T08:50:52.553Z,99146.78
2023-10-27T08:53:18.991Z,99147.84
2023-10-27T08:55:45.462Z,99149.47
2023-10-27T08:58:12.027Z,99152.19
2023-10-27T09:00:38.551Z,99151.09
2023-10-27T09:03:16.257Z,99156.50
2023-10-27T09:05:43.306Z,99154.41
2023-10-27T09:08:10.632Z,99153.94
2023-10-27T09:10:37.916Z,99164.69
2023-10-27T09:13:06.044Z,99158.47
2023-10-27T09:15:45.101Z,99164.19
2023-10-27T09:18:11.682Z,99165.00
2023-10-27T09:20:51.778Z,99164.78
2023-10-27T09:23:20.446Z,99168.84
2023-10-27T09:25:47.982Z,99163.25
2023-10-27T09:28:14.781Z,99169.19
2023-10-27T09:30:43.468Z,99165.47
2023-10-27T09:33:24.298Z,99169.81
2023-10-27T09:35:52.623Z,99167.09
2023-10-27T09:38:21.901Z,99162.78
2023-10-27T09:40:48.912Z,99169.81
2023-10-27T09:43:24.594Z,99173.88
2023-10-27T09:46:01.771Z,99169.53
2023-10-27T09:48:30.510Z,99171.75
2023-10-27T09:51:07.685Z,99177.50
2023-10-27T09:53:34.681Z,99175.03
2023-10-27T09:56:02.505Z,99176.44
2023-10-27T09:58:32.856Z,99178.41
2023-10-27T10:01:02.064Z,99182.50
2023-10-27T10:03:29.021Z,99180.16
2023-10-27T10:06:08.606Z,99174.75
2023-10-27T10:08:35.047Z,99178.50
2023-10-27T10:11:14.742Z,99177.66
2023-10-27T10:13:41.568Z,99184.94
2023-10-27T10:16:09.861Z,99183.66
2023-10-27T10:18:40.201Z,99179.81
2023-10-27T10:21:07.471Z,99183.31
2023-10-27T10:23:43.209Z,99183.22
2023-10-27T10:26:09.807Z,99187.28
2023-10-27T10:28:37.555Z,99185.41
2023-10-27T10:31:17.913Z,99188.44
2023-10-27T10:33:47.244Z,99188.44
2023-10-27T10:36:19.451Z,99190.09
2023-10-27T10:38:57.257Z,99184.72
2023-10-27T10:41:42.081Z,99189.53
2023-10-27T10:44:16.270Z,99192.81
2023-10-27T10:46:47.670Z,99194.66
2023-10-27T10:49:30.624Z,99194.44
2023-10-27T10:51:58.681Z,99192.81
2023-10-27T10:54:33.286Z,99185.75
2023-10-27T10:57:04.974Z,99186.34
2023-10-27T10:59:32.821Z,99191.25
2023-10-27T11:01:59.761Z,99192.06
2023-10-27T11:04:41.409Z,99185.28
2023-10-27T11:07:08.876Z,99185.75
2023-10-27T11:09:35.385Z,99180.97
2023-10-27T11:12:04.018Z,99175.78
2023-10-27T11:14:40.005Z,99179.41
2023-10-27T11:17:06.847Z,99177.53
2023-10-27T11:19:34.724Z,99174.59
2023-10-27T11:22:01.248Z,99174.13
2023-10-27T11:24:27.710Z,99175.75
2023-10-27T11:26:54.134Z,99174.72
2023-10-27T11:29:20.618Z,99175.25
2023-10-27T11:31:48.552Z,99175.25
2023-10-27T11:34:22.054Z,99177.22
2023-10-27T11:37:00.418Z,99169.16
2023-10-27T11:39:27.062Z,99170.22
2023-10-27T11:42:03.329Z,99169.97
2023-10-27T11:44:31.616Z,99175.34
2023-10-27T11:47:00.490Z,99172.91
2023-10-27T11:49:28.049Z,99171.50
2023-10-27T11:51:57.125Z,99170.47
2023-10-27T11:54:25.202Z,99171.03
2023-10-27T11:56:51.748Z,99169.97
2023-10-27T11:59:19.235Z,99171.03
2023-10-27T12:01:45.981Z,99173.72
2023-10-27T12:04:13.100Z,99176.41
2023-10-27T12:06:40.923Z,99176.16
2023-10-27T12:09:08.484Z,99170.22
2023-10-27T12:11:35.597Z,99176.41
2023-10-27T12:14:02.173Z,99175.34
2023-10-27T12:16:28.841Z,99175.13
2023-10-27T12:18:56.364Z,99171.50
2023-10-27T12:21:24.216Z,99178.22
2023-10-27T12:23:50.747Z,99178.22
2023-10-27T12:26:17.679Z,99173.63
2023-10-27T12:28:44.256Z,99176.09
2023-10-27T12:31:10.916Z,99178.56
2023-10-27T12:33:37.481Z,99174.78
2023-10-27T12:36:10.243Z,99175.94
2023-10-27T12:38:37.731Z,99183.56
2023-10-27T12:41:05.530Z,99178.97
2023-10-27T12:43:32.051Z,99182.16
2023-10-27T12:46:05.433Z,99173.47
2023-10-27T12:48:33.448Z,99188.59
2023-10-27T12:51:01.551Z,99188.59
2023-10-27T12:53:28.463Z,99187.53
2023-10-27T12:55:58.451Z,99182.16
2023-10-27T12:58:25.569Z,99183.78
2023-10-27T13:00:53.635Z,99185.41
2023-10-27T13:03:20.210Z,99175.47
2023-10-27T13:05:48.040Z,99181.19
2023-10-27T13:08:15.696Z,99180.34
2023-10-27T13:10:42.253Z,99181.19
2023-10-27T13:13:10.964Z,99178.97
2023-10-27T13:15:37.943Z,99176.50
2023-10-27T13:18:04.689Z,99181.56
2023-10-27T13:20:35.429Z,99183.09
2023-10-27T13:23:03.975Z,99183.69
2023-10-27T13:25:30.990Z,99173.47
2023-10-27T13:27:57.669Z,99178.84
2023-10-27T13:30:24.302Z,99175.13
2023-10-27T13:32:51.377Z,99185.09
2023-10-27T13:35:20.044Z,99177.22
2023-10-27T13:37:46.532Z,99189.16
2023-10-27T13:40:15.439Z,99186.00
2023-10-27T13:42:42.146Z,99182.22
2023-10-27T13:45:08.882Z,99180.34
2023-10-27T13:47:35.415Z,99180.00
2023-10-27T13:50:01.916Z,99179.78
2023-10-27T13:52:28.486Z,99181.88
2023-10-27T13:54:54.954Z,99180.25
2023-10-27T13:57:22.588Z,99183.94
2023-10-27T13:59:49.048Z,99183.09
2023-10-27T14:02:15.903Z,99181.81
2023-10-27T14:04:43.045Z,99186.63
2023-10-27T14:07:10.696Z,99183.94
2023-10-27T14:09:37.823Z,99188.81
2023-10-27T14:12:05.262Z,99185.09
2023-10-27T14:14:31.804Z,99186.72
2023-10-27T14:17:01.001Z,99190.78
2023-10-27T14:19:29.439Z,99185.19
2023-10-27T14:21:57.828Z,99193.25
2023-10-27T14:24:24.422Z,99187.63
2023-10-27T14:26:51.207Z,99191.13
2023-10-27T14:29:17.812Z,99183.03
2023-10-27T14:31:44.872Z,99187.41
2023-10-27T14:34:11.480Z,99185.66
2023-10-27T14:36:39.069Z,99195.38
2023-10-27T14:39:07.081Z,99200.75
2023-10-27T14:41:35.323Z,99194.88
2023-10-27T14:44:02.296Z,99197.59
2023-10-27T14:46:31.404Z,99195.97
2023-10-27T14:48:58.103Z,99205.69
2023-10-27T14:51:26.002Z,99195.72
2023-10-27T14:53:52.657Z,99198.66
2023-10-27T14:56:19.102Z,99194.81
2023-10-27T14:58:45.570Z,99198.56
2023-10-27T15:01:15.791Z,99192.13
2023-10-27T15:03:42.955Z,99196.44
2023-10-27T15:06:10.853Z,99207.22
2023-10-27T15:08:38.601Z,99206.66
2023-10-27T15:11:08.591Z,99208.75
2023-10-27T15:13:35.389Z,99213.91
2023-10-27T15:16:14.443Z,99215.56
2023-10-27T15:18:44.208Z,99210.72
2023-10-27T15:21:16.412Z,99214.97
2023-10-27T15:23:42.874Z,99211.47
2023-10-27T15:26:09.475Z,99216.75
2023-10-27T15:28:36.072Z,99213.59
2023-10-27T15:31:04.550Z,99209.56
2023-10-27T15:33:32.031Z,99206.88
2023-10-27T15:36:06.165Z,99203.72
2023-10-27T15:38:33.930Z,99210.25
2023-10-27T15:41:01.093Z,99207.63
2023-10-27T15:43:30.177Z,99202.63
2023-10-27T15:46:04.271Z,99204.03
2023-10-27T15:48:33.552Z,99207.53
2023-10-27T15:51:04.026Z,99208.09
2023-10-27T15:53:32.738Z,99202.69
2023-10-27T15:56:02.361Z,99205.16
2023-10-27T15:58:29.039Z,99202.22
2023-10-27T16:00:57.336Z,99211.94
2023-10-27T16:03:25.376Z,99207.63
2023-10-27T16:05:53.265Z,99221.09
2023-10-27T16:08:19.938Z,99212.88
2023-10-27T16:10:46.459Z,99217.03
2023-10-27T16:13:13.222Z,99217.13
2023-10-27T16:15:39.965Z,99217.38
2023-10-27T16:18:08.984Z,99220.78
2023-10-27T16:20:37.689Z,99213.19
2023-10-27T16:23:05.323Z,99217.78
2023-10-27T16:25:33.734Z,99212.53
2023-10-27T16:28:01.224Z,99216.28
2023-10-27T16:30:28.387Z,99224.38
2023-10-27T16:32:54.867Z,99228.13
2023-10-27T16:35:21.411Z,99236.72
2023-10-27T16:37:47.897Z,99245.84
2023-10-27T16:40:14.482Z,99245.28
2023-10-27T16:42:41.894Z,99242.50
2023-10-27T16:45:08.707Z,99245.88
2023-10-27T16:47:38.152Z,99249.16
2023-10-27T16:50:06.161Z,99249.97
2023-10-27T16:52:33.187Z,99247.75
2023-10-27T16:55:01.559Z,99245.63
2023-10-27T16:57:30.993Z,99254.53
2023-10-27T16:59:57.484Z,99252.09
2023-10-27T17:02:25.646Z,99249.41
2023-10-27T17:04:53.518Z,99247.75
2023-10-27T17:07:21.429Z,99244.00
2023-10-27T17:09:54.023Z,99243.75
2023-10-27T17:12:21.398Z,99247.88
2023-10-27T17:14:54.452Z,99253.84
2023-10-27T17:17:20.909Z,99255.72
2023-10-27T17:19:51.232Z,99254.44
2023-10-27T17:22:20.084Z,99252.78
2023-10-27T17:24:47.534Z,99255.97
2023-10-27T17:27:14.874Z,99254.09
2023-10-27T17:29:41.338Z,99258.69
2023-10-27T17:32:08.812Z,99256.16
2023-10-27T17:34:35.398Z,99259.50
2023-10-27T17:37:03.615Z,99255.97
2023-10-27T17:39:30.026Z,99256.41
2023-10-27T17:41:56.458Z,99257.72
2023-10-27T17:44:23.674Z,99257.72
2023-10-27T17:46:50.193Z,99259.84
2023-10-27T17:49:18.075Z,99265.47
2023-10-27T17:51:47.544Z,99269.81
2023-10-27T17:54:14.370Z,99266.28
2023-10-27T17:56:40.980Z,99260.88
2023-10-27T17:59:10.131Z,99266.78
2023-10-27T18:01:36.667Z,99264.56
2023-10-27T18:04:04.113Z,99264.81
2023-10-27T18:06:31.722Z,99268.53
2023-10-27T18:08:58.342Z,99270.41
2023-10-27T18:11:25.630Z,99269.03
2023-10-27T18:13:52.399Z,99270.66
2023-10-27T18:16:18.889Z,99265.28
2023-10-27T18:18:45.431Z,99270.06
2023-10-27T18:21:12.385Z,99269.03
2023-10-27T18:23:40.652Z,99275.47
2023-10-27T18:26:14.833Z,99275.47
2023-10-27T18:28:41.646Z,99269.72
2023-10-27T18:31:08.593Z,99265.41
2023-10-27T18:33:35.057Z,99269.63
2023-10-27T18:36:14.675Z,99270.69
2023-10-27T18:38:42.357Z,99266.38
2023-10-27T18:41:12.168Z,99269.53
2023-10-27T18:43:40.628Z,99260.16
2023-10-27T18:46:11.179Z,99263.69
2023-10-27T18:48:38.030Z,99268.56
2023-10-27T18:51:04.685Z,99259.31
2023-10-27T18:53:33.809Z,99258.50
2023-10-27T18:56:07.532Z,99263.91
2023-10-27T18:58:38.200Z,99257.69
2023-10-27T19:01:09.699Z,99258.16
2023-10-27T19:03:39.839Z,99255.25
2023-10-27T19:06:06.979Z,99252.56
2023-10-27T19:08:33.981Z,99254.66
2023-10-27T19:11:11.863Z,99253.50
2023-10-27T19:13:40.829Z,99252.84
2023-10-27T19:16:09.434Z,99253.88
2023-10-27T19:18:38.569Z,99247.56
2023-10-27T19:21:11.707Z,99253.53
2023-10-27T19:23:40.485Z,99258.09
2023-10-27T19:26:15.396Z,99259.75
2023-10-27T19:28:43.683Z,99258.91
2023-10-27T19:31:15.049Z,99268.88
2023-10-27T19:33:41.784Z,99270.53
2023-10-27T19:36:09.064Z,99269.69
2023-10-27T19:38:37.252Z,99272.06
2023-10-27T19:41:05.314Z,99280.59
2023-10-27T19:43:32.237Z,99272.28
2023-10-27T19:45:59.178Z,99279.78
2023-10-27T19:48:27.472Z,99289.75
2023-10-27T19:50:54.050Z,99286.81
2023-10-27T19:53:20.501Z,99287.38
2023-10-27T19:55:47.114Z,99284.69
2023-10-27T19:58:13.646Z,99292.53
2023-10-27T20:00:40.357Z,99293.47
2023-10-27T20:03:10.040Z,99297.84
2023-10-27T20:05:38.173Z,99297.00
2023-10-27T20:08:10.136Z,99294.06
2023-10-27T20:10:43.358Z,99298.88
2023-10-27T20:13:10.250Z,99310.69
2023-10-27T20:15:39.218Z,99310.13
2023-10-27T20:18:06.866Z,99314.69
2023-10-27T20:20:34.143Z,99308.97
2023-10-27T20:23:03.221Z,99309.78
2023-10-27T20:25:35.560Z,99314.81
2023-10-27T20:28:03.556Z,99319.38
2023-10-27T20:30:30.786Z,99318.78
2023-10-27T20:32:58.797Z,99318.78
2023-10-27T20:35:26.239Z,99321.72
2023-10-27T20:37:53.718Z,99319.84
2023-10-27T20:40:21.350Z,99319.59
2023-10-27T20:42:49.550Z,99326.50
2023-10-27T20:45:17.374Z,99331.91
2023-10-27T20:47:46.322Z,99332.84
2023-10-27T20:50:13.715Z,99328.50
2023-10-27T20:52:43.849Z,99338.22
2023-10-27T20:55:11.152Z,99332.34
2023-10-27T20:57:38.278Z,99334.00
2023-10-27T21:00:05.259Z,99337.53
2023-10-27T21:02:32.101Z,99339.97
2023-10-27T21:04:59.246Z,99342.44
2023-10-27T21:07:26.514Z,99342.91
2023-10-27T21:09:53.358Z,99339.63
2023-10-27T21:12:20.056Z,99350.38
2023-10-27T21:14:47.486Z,99352.72
2023-10-27T21:17:14.860Z,99354.84
2023-10-27T21:19:41.567Z,99350.88
2023-10-27T21:22:08.116Z,99350.88
2023-10-27T21:24:35.097Z,99349.19
2023-10-27T21:27:02.382Z,99356.25
2023-10-27T21:29:28.804Z,99349.19
2023-10-27T21:31:55.414Z,99354.84
2023-10-27T21:34:22.020Z,99358.34
2023-10-27T21:36:48.689Z,99357.28
2023-10-27T21:39:15.981Z,99367.56
2023-10-27T21:41:42.814Z,99361.38
2023-10-27T21:44:09.245Z,99374.81
2023-10-27T21:46:35.698Z,99365.94
2023-10-27T21:49:02.166Z,99367.00
2023-10-27T21:51:28.798Z,99368.63
2023-10-27T21:53:55.636Z,99369.44
2023-10-27T21:56:22.448Z,99363.00
2023-10-27T21:58:49.263Z,99363.13
2023-10-27T22:01:17.655Z,99371.78
2023-10-27T22:03:44.231Z,99372.84
2023-10-27T22:06:11.663Z,99366.63
2023-10-27T22:08:42.459Z,99372.25
2023-10-27T22:11:10.712Z,99375.41
2023-10-27T22:13:39.429Z,99374.81
2023-10-27T22:16:09.045Z,99373.97
2023-10-27T22:18:36.164Z,99373.91
2023-10-27T22:21:13.422Z,99375.16
2023-10-27T22:23:41.459Z,99377.84
2023-10-27T22:26:08.527Z,99370.59
2023-10-27T22:28:35.082Z,99378.09
2023-10-27T22:31:01.650Z,99378.78
2023-10-27T22:33:28.162Z,99373.97
2023-10-27T22:35:55.995Z,99375.38
2023-10-27T22:38:22.770Z,99377.47
2023-10-27T22:40:49.235Z,99375.13
2023-10-27T22:43:18.446Z,99371.63
2023-10-27T22:45:44.963Z,99372.94
2023-10-27T22:48:11.450Z,99369.53
2023-10-27T22:50:38.328Z,99373.25
2023-10-27T22:53:05.022Z,99372.69
2023-10-27T22:55:31.951Z,99365.50
2023-10-27T22:57:59.234Z,99364.25
2023-10-27T23:00:25.818Z,99362.16
2023-10-27T23:02:52.673Z,99364.50
2023-10-27T23:05:19.698Z,99359.09
2023-10-27T23:07:46.848Z,99359.31
2023-10-27T23:10:13.557Z,99355.00
2023-10-27T23:12:40.722Z,99352.31
2023-10-27T23:15:08.809Z,99360.50
2023-10-27T23:17:35.447Z,99364.59
2023-10-27T23:20:01.924Z,99355.47
2023-10-27T23:22:29.239Z,99365.06
2023-10-27T23:24:55.787Z,99353.47
2023-10-27T23:27:22.268Z,99360.50
2023-10-27T23:29:48.717Z,99357.22
2023-10-27T23:32:16.554Z,99357.22
2023-10-27T23:34:43.565Z,99365.88
2023-10-27T23:37:10.422Z,99364.00
2023-10-27T23:39:37.122Z,99361.81
2023-10-27T23:42:03.846Z,99358.50
2023-10-27T23:44:30.607Z,99361.19
2023-10-27T23:46:57.336Z,99366.56
2023-10-27T23:49:24.033Z,99376.28
2023-10-27T23:51:50.473Z,99370.91
2023-10-27T23:54:16.940Z,99371.50
2023-10-27T23:56:43.394Z,99376.53
2023-10-27T23:59:13.929Z,99373.25
